Time;durP1;ratioP1;P1;durP2;ratioP2;P2;SDS_P1;SDS_P2;PMS_P1;PMS_P2;Temp;Humidity;BMP_temperature;BMP_pressure;BME280_temperature;BME280_humidity;BME280_pressure;Samples;Min_cycle;Max_cycle;Signal;HPM_P1;HPM_P2
2022/06/01 00:00:35;;;;;;;15.70;10.05;;;;;;;21.57;100.00;100782.70;1738782;82;21048;-77
2022/06/01 00:03:03;;;;;;;19.77;10.68;;;;;;;21.21;100.00;100775.70;1739058;82;21016;-77
2022/06/01 00:05:32;;;;;;;21.10;10.63;;;;;;;20.40;100.00;100768.87;1738899;82;21013;-77
2022/06/01 00:07:59;;;;;;;17.98;10.05;;;;;;;20.46;100.00;100761.83;1738684;82;21520;-77
2022/06/01 00:10:28;;;;;;;20.68;10.32;;;;;;;20.96;100.00;100765.15;1738745;82;21547;-76
2022/06/01 00:12:57;;;;;;;19.77;10.03;;;;;;;21.25;100.00;100765.33;1739014;82;21001;-76
2022/06/01 00:15:26;;;;;;;18.42;10.05;;;;;;;20.43;100.00;100768.60;1739111;82;21604;-76
2022/06/01 00:17:55;;;;;;;16.12;9.93;;;;;;;21.29;100.00;100762.79;1736101;82;21037;-76
2022/06/01 00:20:24;;;;;;;17.10;9.88;;;;;;;21.27;100.00;100763.86;1738942;82;21026;-77
2022/06/01 00:22:51;;;;;;;16.30;9.33;;;;;;;21.32;100.00;100765.63;1739018;82;21044;-77
2022/06/01 00:25:18;;;;;;;25.25;9.33;;;;;;;21.41;100.00;100773.53;1738960;82;21529;-76
2022/06/01 00:27:46;;;;;;;21.82;9.65;;;;;;;21.49;100.00;100768.98;1738692;82;21040;-76
2022/06/01 00:30:16;;;;;;;18.40;9.10;;;;;;;21.44;100.00;100772.95;1739000;82;21005;-76
2022/06/01 00:32:43;;;;;;;16.90;8.93;;;;;;;21.35;100.00;100760.95;1712237;82;21029;-76
2022/06/01 00:35:14;;;;;;;20.77;8.58;;;;;;;21.37;100.00;100756.88;1738666;82;21099;-76
2022/06/01 00:37:41;;;;;;;14.05;8.45;;;;;;;20.98;100.00;100753.59;1739059;82;21044;-76
2022/06/01 00:40:12;;;;;;;14.10;8.15;;;;;;;20.43;100.00;100757.32;1738806;82;21033;-76
2022/06/01 00:42:44;;;;;;;15.65;8.08;;;;;;;20.53;100.00;100749.89;1738986;82;21583;-76
2022/06/01 00:45:16;;;;;;;12.30;7.80;;;;;;;20.56;100.00;100747.49;1711831;82;21001;-77
2022/06/01 00:47:43;;;;;;;12.18;8.30;;;;;;;20.59;100.00;100752.03;1738990;82;21040;-77
2022/06/01 00:50:15;;;;;;;17.77;8.50;;;;;;;20.55;100.00;100749.28;1738904;82;21067;-77
2022/06/01 00:52:47;;;;;;;20.40;9.68;;;;;;;20.48;100.00;100744.68;1738894;82;21064;-76
2022/06/01 00:55:27;;;;;;;16.65;9.70;;;;;;;20.48;100.00;100744.23;1739228;82;21052;-77
2022/06/01 00:58:04;;;;;;;19.32;9.73;;;;;;;20.38;100.00;100751.17;1738701;82;21040;-76
2022/06/01 01:00:34;;;;;;;16.45;9.13;;;;;;;20.35;100.00;100760.06;1739030;82;21044;-76
2022/06/01 01:03:04;;;;;;;16.50;9.35;;;;;;;20.34;100.00;100752.37;1738937;82;21044;-76
2022/06/01 01:05:33;;;;;;;16.27;9.58;;;;;;;20.38;100.00;100749.37;1738999;82;21144;-76
2022/06/01 01:08:04;;;;;;;16.52;8.85;;;;;;;20.15;100.00;100743.41;1739013;82;21556;-77
2022/06/01 01:10:32;;;;;;;17.50;9.05;;;;;;;20.12;100.00;100742.82;1738945;82;21075;-77
2022/06/01 01:13:08;;;;;;;14.87;8.70;;;;;;;20.28;100.00;100750.26;1738879;82;21547;-77
2022/06/01 01:15:42;;;;;;;13.90;8.08;;;;;;;20.29;100.00;100738.83;1739081;82;21017;-76
2022/06/01 01:18:16;;;;;;;16.23;8.20;;;;;;;20.29;100.00;100748.80;1738557;82;21119;-77
2022/06/01 01:21:11;;;;;;;19.25;9.18;;;;;;;20.29;100.00;100746.67;1739365;82;20992;-76
2022/06/01 01:24:01;;;;;;;13.65;8.03;;;;;;;20.22;100.00;100739.81;1739131;82;21569;-76
2022/06/01 01:26:29;;;;;;;15.88;9.13;;;;;;;20.20;100.00;100739.94;1739312;82;21032;-76
2022/06/01 01:28:58;;;;;;;12.35;7.97;;;;;;;19.91;100.00;100735.75;1738820;82;21044;-76
2022/06/01 01:31:26;;;;;;;15.45;8.28;;;;;;;19.60;100.00;100734.69;1739025;82;21080;-76
2022/06/01 01:33:56;;;;;;;21.40;8.08;;;;;;;19.84;100.00;100733.27;1739155;82;21048;-75
2022/06/01 01:36:28;;;;;;;13.28;8.20;;;;;;;20.08;100.00;100729.16;1738776;82;21575;-76
2022/06/01 01:39:10;;;;;;;15.28;8.25;;;;;;;20.19;100.00;100723.91;1738925;82;21072;-76
2022/06/01 01:41:47;;;;;;;13.48;7.58;;;;;;;19.95;100.00;100735.01;1739081;82;21036;-76
2022/06/01 01:44:25;;;;;;;13.13;7.90;;;;;;;19.91;100.00;100738.37;1737258;82;21072;-77
2022/06/01 01:46:54;;;;;;;13.08;7.83;;;;;;;20.11;100.00;100734.12;1739106;82;21068;-75
2022/06/01 01:49:26;;;;;;;12.82;8.03;;;;;;;20.38;100.00;100728.94;1739019;82;21540;-76
2022/06/01 01:51:59;;;;;;;14.25;7.90;;;;;;;20.41;100.00;100729.98;1739157;82;21521;-76
2022/06/01 01:54:51;;;;;;;13.15;7.78;;;;;;;20.44;100.00;100731.05;1739142;82;20985;-76
2022/06/01 01:57:54;;;;;;;15.10;7.95;;;;;;;20.40;100.00;100741.41;1739032;82;21123;-76
2022/06/01 02:00:34;;;;;;;14.23;7.67;;;;;;;21.11;100.00;100744.73;1739165;82;21074;-76
2022/06/01 02:03:12;;;;;;;14.53;8.13;;;;;;;21.28;100.00;100746.72;1739029;82;21549;-76
2022/06/01 02:06:12;;;;;;;16.32;7.95;;;;;;;21.31;100.00;100741.69;1738790;82;21060;-76
2022/06/01 02:08:59;;;;;;;14.28;8.98;;;;;;;20.99;100.00;100747.89;1738340;82;21001;-76
2022/06/01 02:14:46;;;;;;;13.60;8.35;;;;;;;21.31;100.00;100760.88;1739552;82;21060;-76
2022/06/01 02:17:23;;;;;;;17.02;8.13;;;;;;;21.21;100.00;100748.22;1738957;82;21048;-76
2022/06/01 02:19:55;;;;;;;13.83;8.60;;;;;;;21.23;100.00;100748.91;1738984;82;21107;-76
2022/06/01 02:22:25;;;;;;;13.75;8.00;;;;;;;21.41;100.00;100763.05;1738409;82;21024;-76
2022/06/01 02:24:52;;;;;;;12.33;7.80;;;;;;;21.40;100.00;100774.47;1739556;82;21083;-76
2022/06/01 02:27:22;;;;;;;14.80;8.38;;;;;;;21.38;100.00;100765.91;1739065;82;21063;-76
2022/06/01 02:30:07;;;;;;;15.95;8.53;;;;;;;20.91;100.00;100753.77;1738929;82;21040;-75
2022/06/01 02:32:37;;;;;;;15.43;7.87;;;;;;;20.77;100.00;100749.68;1733295;82;21048;-75
2022/06/01 02:35:07;;;;;;;12.28;7.78;;;;;;;20.52;100.00;100765.25;1738898;82;21198;-75
2022/06/01 02:37:39;;;;;;;14.13;7.80;;;;;;;20.66;100.00;100764.60;1739057;82;21057;-75
2022/06/01 02:40:11;;;;;;;16.82;8.03;;;;;;;20.84;100.00;100754.41;1739028;82;21001;-75
2022/06/01 02:42:51;;;;;;;18.15;7.65;;;;;;;20.73;100.00;100756.61;1739049;82;21001;-75
2022/06/01 02:45:22;;;;;;;15.13;8.23;;;;;;;20.73;100.00;100754.82;1739016;82;21060;-75
2022/06/01 02:47:52;;;;;;;17.60;8.10;;;;;;;21.12;100.00;100766.00;1739073;82;21016;-76
2022/06/01 02:50:23;;;;;;;14.43;8.38;;;;;;;21.36;100.00;100767.02;1711901;82;21060;-75
2022/06/01 02:52:52;;;;;;;14.63;7.75;;;;;;;21.45;100.00;100765.42;1738970;82;21048;-76
2022/06/01 02:55:21;;;;;;;16.60;7.72;;;;;;;21.58;100.00;100766.86;1711665;82;21024;-76
2022/06/01 02:57:50;;;;;;;15.68;8.13;;;;;;;21.74;100.00;100760.30;1736192;82;21556;-76
2022/06/01 03:00:22;;;;;;;16.90;8.20;;;;;;;21.67;100.00;100761.78;1736180;82;21033;-75
2022/06/01 03:02:56;;;;;;;12.45;7.97;;;;;;;21.87;100.00;100758.23;1739031;82;20993;-76
2022/06/01 03:05:34;;;;;;;13.72;8.30;;;;;;;22.00;100.00;100761.45;1739221;82;20976;-75
2022/06/01 03:08:05;;;;;;;12.63;7.28;;;;;;;22.17;100.00;100769.13;1738928;82;21057;-75
2022/06/01 03:10:33;;;;;;;14.05;7.60;;;;;;;22.27;100.00;100764.41;1738711;82;21532;-75
2022/06/01 03:13:03;;;;;;;12.60;7.00;;;;;;;22.38;100.00;100769.05;1738952;82;21048;-75
2022/06/01 03:15:31;;;;;;;13.80;6.62;;;;;;;22.28;100.00;100764.73;1738755;82;21040;-76
2022/06/01 03:17:58;;;;;;;11.48;6.15;;;;;;;22.10;100.00;100770.64;1739051;82;21044;-75
2022/06/01 03:20:28;;;;;;;13.53;6.70;;;;;;;22.21;100.00;100768.38;1738871;82;21029;-75
2022/06/01 03:22:56;;;;;;;13.90;6.45;;;;;;;22.21;100.00;100773.62;1739013;82;21022;-75
2022/06/01 03:25:24;;;;;;;12.93;6.00;;;;;;;22.30;100.00;100776.73;1738841;82;21525;-75
2022/06/01 03:27:57;;;;;;;11.73;5.80;;;;;;;22.38;100.00;100770.36;1736371;82;21489;-75
2022/06/01 03:30:28;;;;;;;11.55;5.72;;;;;;;22.39;100.00;100776.42;1738755;82;21036;-75
2022/06/01 03:32:57;;;;;;;9.68;5.70;;;;;;;22.51;100.00;100781.05;1739000;82;21056;-74
2022/06/01 03:35:29;;;;;;;10.68;5.50;;;;;;;22.78;100.00;100765.89;1737399;82;21142;-74
2022/06/01 03:37:57;;;;;;;9.58;5.45;;;;;;;22.48;100.00;100772.95;1730429;83;21059;-74
2022/06/01 03:40:28;;;;;;;11.00;5.30;;;;;;;22.57;100.00;100775.25;1730292;83;21054;-74
2022/06/01 03:42:56;;;;;;;15.28;5.72;;;;;;;22.34;100.00;100775.53;1730518;83;21035;-74
2022/06/01 03:48:10;;;;;;;12.05;6.05;;;;;;;22.52;100.00;100776.95;1730363;83;21566;-75
2022/06/01 03:50:37;;;;;;;11.73;5.78;;;;;;;22.55;100.00;100771.94;1730489;83;21040;-74
2022/06/01 03:53:05;;;;;;;11.50;5.58;;;;;;;22.69;100.00;100768.88;1730295;83;21024;-75
2022/06/01 03:55:32;;;;;;;12.82;5.80;;;;;;;22.77;100.00;100762.94;1730372;83;21047;-75
2022/06/01 03:57:59;;;;;;;16.25;5.80;;;;;;;22.75;100.00;100764.38;1730408;83;21043;-74
2022/06/01 04:00:27;;;;;;;15.28;5.72;;;;;;;23.71;100.00;100767.33;1730373;83;21059;-76
2022/06/01 04:02:55;;;;;;;11.35;5.75;;;;;;;23.62;100.00;100771.64;1730323;83;21004;-75
2022/06/01 04:05:23;;;;;;;10.80;5.25;;;;;;;23.49;100.00;100768.55;1730437;83;21576;-75
2022/06/01 04:07:51;;;;;;;10.35;5.42;;;;;;;23.44;100.00;100768.98;1730382;83;21090;-75
2022/06/01 04:10:20;;;;;;;10.15;5.35;;;;;;;23.29;100.00;100762.05;1730112;83;21043;-76
2022/06/01 04:12:47;;;;;;;11.03;5.45;;;;;;;23.59;100.00;100771.95;1730246;83;21015;-75
2022/06/01 04:15:16;;;;;;;9.83;5.20;;;;;;;23.55;100.00;100765.33;1730145;83;21090;-74
2022/06/01 04:17:44;;;;;;;11.10;5.45;;;;;;;23.54;100.00;100768.45;1730164;83;21040;-74
2022/06/01 04:20:12;;;;;;;12.82;5.20;;;;;;;23.51;100.00;100771.85;1730420;83;21051;-74
2022/06/01 04:22:42;;;;;;;10.30;5.15;;;;;;;23.48;100.00;100770.81;1730521;83;21023;-75
2022/06/01 04:25:14;;;;;;;10.70;5.15;;;;;;;23.72;100.00;100779.02;1730386;83;21071;-75
2022/06/01 04:27:43;;;;;;;11.90;5.30;;;;;;;23.93;100.00;100785.35;1730468;83;20989;-75
2022/06/01 04:30:15;;;;;;;10.90;5.30;;;;;;;23.99;100.00;100780.81;1730348;83;21103;-75
2022/06/01 04:32:45;;;;;;;11.53;5.40;;;;;;;24.67;100.00;100775.52;1730538;83;21575;-75
2022/06/01 04:35:12;;;;;;;12.40;5.42;;;;;;;24.98;100.00;100777.23;1730500;83;21062;-76
2022/06/01 04:37:39;;;;;;;11.75;5.60;;;;;;;25.10;100.00;100776.95;1706258;83;21063;-75
2022/06/01 04:40:09;;;;;;;10.65;5.65;;;;;;;24.28;100.00;100780.27;1705819;84;21504;-75
2022/06/01 04:42:39;;;;;;;11.48;5.83;;;;;;;24.18;100.00;100780.34;1711503;84;21036;-77
2022/06/01 04:45:09;;;;;;;15.65;5.80;;;;;;;24.19;100.00;100788.09;1706072;84;21063;-76
2022/06/01 04:47:37;;;;;;;12.82;5.72;;;;;;;25.25;100.00;100785.98;1711665;84;21019;-75
2022/06/01 04:50:07;;;;;;;15.45;5.67;;;;;;;25.34;100.00;100790.29;1706115;83;21056;-76
2022/06/01 04:52:35;;;;;;;11.28;5.42;;;;;;;25.42;100.00;100787.38;1706119;84;21032;-76
2022/06/01 04:55:03;;;;;;;12.65;5.42;;;;;;;25.71;100.00;100786.52;1706143;84;21040;-76
2022/06/01 04:57:30;;;;;;;12.82;5.40;;;;;;;25.38;100.00;100794.77;1706057;84;21055;-76
2022/06/01 04:59:58;;;;;;;17.00;6.42;;;;;;;25.27;100.00;100793.23;1706177;84;21540;-75
2022/06/01 05:02:25;;;;;;;13.90;6.12;;;;;;;25.33;100.00;100789.97;1706074;84;21019;-77
2022/06/01 05:04:52;;;;;;;13.30;5.05;;;;;;;25.31;100.00;100792.44;1705966;84;21094;-76
2022/06/01 05:07:19;;;;;;;13.22;5.60;;;;;;;25.13;100.00;100794.60;1706321;84;21032;-75
2022/06/01 05:09:46;;;;;;;11.10;5.20;;;;;;;25.12;100.00;100792.97;1705842;84;21596;-75
2022/06/01 05:12:15;;;;;;;9.80;5.08;;;;;;;25.27;98.97;100795.88;1706179;84;21098;-76
2022/06/01 05:14:43;;;;;;;10.53;5.40;;;;;;;25.08;99.65;100795.58;1706081;84;21031;-75
2022/06/01 05:17:10;;;;;;;12.18;5.20;;;;;;;25.14;99.97;100796.73;1704879;84;21032;-76
2022/06/01 05:19:37;;;;;;;11.45;4.83;;;;;;;25.43;97.35;100794.31;1706035;83;21079;-75
2022/06/01 05:22:06;;;;;;;8.43;4.60;;;;;;;25.68;96.87;100796.05;1706042;84;21047;-76
2022/06/01 05:24:32;;;;;;;10.45;4.92;;;;;;;25.73;94.30;100800.36;1688085;84;21071;-75
2022/06/01 05:27:00;;;;;;;14.38;5.28;;;;;;;25.48;93.58;100807.33;1706382;84;20977;-76
2022/06/01 05:29:27;;;;;;;9.88;5.10;;;;;;;25.48;93.58;100807.33;1706295;84;21524;-75
2022/06/01 05:31:55;;;;;;;10.55;5.58;;;;;;;25.62;90.56;100797.19;1705900;83;21053;-76
2022/06/01 05:34:23;;;;;;;14.40;5.53;;;;;;;25.62;90.56;100797.19;1706062;84;21535;-76
2022/06/01 05:36:51;;;;;;;11.95;5.25;;;;;;;25.67;91.37;100798.83;1723723;81;21062;-75
2022/06/01 05:39:18;;;;;;;14.15;5.10;;;;;;;25.88;91.06;100810.30;1735128;81;20996;-76
2022/06/01 05:41:45;;;;;;;10.55;5.75;;;;;;;26.08;90.16;100809.06;1740534;81;20976;-76
2022/06/01 05:44:12;;;;;;;18.20;6.15;;;;;;;26.33;89.17;100805.13;1738105;81;21057;-75
2022/06/01 05:46:40;;;;;;;16.93;6.15;;;;;;;26.35;87.49;100807.12;1738065;82;20996;-75
2022/06/01 05:49:07;;;;;;;12.55;5.45;;;;;;;26.40;89.03;100800.87;1738530;81;21066;-75
2022/06/01 05:51:35;;;;;;;15.10;5.78;;;;;;;26.56;90.01;100800.87;1730149;81;21122;-77
2022/06/01 05:54:03;;;;;;;13.10;5.50;;;;;;;26.55;89.79;100798.39;1729066;83;21383;-76
2022/06/01 05:56:31;;;;;;;11.97;6.08;;;;;;;26.61;88.91;100803.55;1699023;83;21019;-77
2022/06/01 05:58:58;;;;;;;14.55;6.42;;;;;;;26.53;88.19;100801.19;1730174;83;22231;-75
2022/06/01 06:01:25;;;;;;;16.55;6.35;;;;;;;26.38;89.50;100804.17;1730190;83;21075;-75
2022/06/01 06:03:52;;;;;;;18.82;6.55;;;;;;;26.36;90.21;100803.50;1730165;83;21023;-76
2022/06/01 06:06:20;;;;;;;14.35;5.85;;;;;;;26.43;91.99;100801.84;1730454;83;21047;-75
2022/06/01 06:09:02;;;;;;;18.45;6.05;;;;;;;27.00;89.57;100808.94;1730548;83;21043;-75
2022/06/01 06:11:33;;;;;;;15.55;5.97;;;;;;;26.63;91.23;100807.66;1730273;83;21043;-75
2022/06/01 06:14:01;;;;;;;12.60;6.33;;;;;;;26.68;90.61;100807.97;1730346;83;21095;-75
2022/06/01 06:16:34;;;;;;;14.80;6.15;;;;;;;26.78;90.13;100803.84;1764425;81;21027;-75
2022/06/01 06:19:03;;;;;;;12.85;6.37;;;;;;;26.97;88.32;100802.18;1764532;80;21071;-75
2022/06/01 06:21:32;;;;;;;12.45;6.17;;;;;;;26.87;86.32;100802.86;1764373;81;21038;-76
2022/06/01 06:24:07;;;;;;;12.30;6.28;;;;;;;26.98;85.90;100801.17;1764317;81;21011;-76
2022/06/01 06:26:37;;;;;;;16.20;6.85;;;;;;;27.94;85.66;100797.23;1764916;81;21006;-76
2022/06/01 06:29:08;;;;;;;14.85;6.60;;;;;;;27.80;80.67;100803.23;1764430;81;21027;-76
2022/06/01 06:31:36;;;;;;;15.83;6.42;;;;;;;27.75;80.23;100797.16;1764441;81;21074;-76
2022/06/01 06:34:04;;;;;;;13.30;6.50;;;;;;;27.38;82.30;100803.92;1764180;81;21515;-75
2022/06/01 06:36:31;;;;;;;17.27;6.75;;;;;;;27.20;82.35;100800.66;1760144;81;21163;-76
2022/06/01 06:38:59;;;;;;;16.20;6.50;;;;;;;27.40;81.92;100806.41;1750435;82;21000;-76
2022/06/01 06:41:26;;;;;;;13.78;6.08;;;;;;;27.41;82.73;100802.25;1750748;82;21032;-76
2022/06/01 06:43:53;;;;;;;16.93;6.90;;;;;;;27.23;82.13;100796.33;1750789;82;21012;-76
2022/06/01 06:46:23;;;;;;;15.23;6.50;;;;;;;27.30;82.77;100802.13;1750410;82;21028;-75
2022/06/01 06:48:51;;;;;;;16.17;7.33;;;;;;;27.17;82.41;100796.53;1748071;82;21047;-76
2022/06/01 06:51:20;;;;;;;10.20;6.28;;;;;;;27.59;82.14;100804.66;1750371;82;21000;-76
2022/06/01 06:53:47;;;;;;;16.70;6.70;;;;;;;27.62;80.14;100804.84;1750790;82;21516;-76
2022/06/01 06:56:19;;;;;;;13.03;6.70;;;;;;;27.60;81.31;100805.51;1735127;82;21589;-77
2022/06/01 06:58:46;;;;;;;10.05;6.10;;;;;;;27.83;79.75;100804.23;1721080;83;21009;-76
2022/06/01 07:01:14;;;;;;;13.05;6.20;;;;;;;28.00;79.52;100804.98;1721131;83;21053;-75
2022/06/01 07:03:42;;;;;;;13.58;6.97;;;;;;;28.08;79.57;100797.84;1702440;83;21051;-75
2022/06/01 07:06:09;;;;;;;14.65;7.00;;;;;;;27.94;77.83;100803.85;1702760;83;21027;-74
2022/06/01 07:08:38;;;;;;;14.18;6.40;;;;;;;28.04;80.79;100791.25;1702769;83;21079;-75
2022/06/01 07:11:05;;;;;;;17.02;7.10;;;;;;;28.02;78.84;100798.54;1702761;84;21543;-77
2022/06/01 07:13:34;;;;;;;20.43;7.50;;;;;;;27.95;79.62;100802.36;1702555;84;21570;-75
2022/06/01 07:16:18;;;;;;;10.55;6.87;;;;;;;28.06;78.00;100802.48;1702723;84;21054;-75
2022/06/01 07:18:48;;;;;;;14.95;6.87;;;;;;;27.97;76.73;100800.88;1702243;83;21114;-75
2022/06/01 07:21:17;;;;;;;15.08;7.20;;;;;;;28.39;76.66;100791.66;1674047;84;21551;-76
2022/06/01 07:23:45;;;;;;;18.12;7.30;;;;;;;28.65;75.90;100793.11;1699578;84;21019;-76
2022/06/01 07:26:26;;;;;;;19.42;7.50;;;;;;;28.60;74.13;100791.01;1700108;83;21043;-76
2022/06/01 07:28:53;;;;;;;14.63;7.35;;;;;;;28.76;74.20;100785.56;1700114;83;21039;-75
2022/06/01 07:31:20;;;;;;;18.23;7.55;;;;;;;28.62;75.05;100785.03;1699941;84;21015;-75
2022/06/01 07:33:48;;;;;;;18.23;7.30;;;;;;;28.82;76.14;100788.50;1700467;84;21024;-76
2022/06/01 07:36:17;;;;;;;15.15;7.17;;;;;;;28.86;74.80;100787.14;1675139;81;21016;-77
2022/06/01 07:44:41;;;;;;;17.65;7.65;;;;;;;29.00;74.49;100788.16;1721927;82;21545;-76
2022/06/01 07:47:10;;;;;;;18.27;7.75;;;;;;;29.26;72.42;100790.36;1733631;83;21003;-76
2022/06/01 07:49:38;;;;;;;16.17;7.22;;;;;;;29.09;73.05;100795.82;1777776;80;21583;-77
2022/06/01 07:52:08;;;;;;;19.20;7.58;;;;;;;28.88;72.48;100790.43;1776687;80;21465;-76
2022/06/01 07:54:41;;;;;;;15.13;7.22;;;;;;;29.21;72.30;100788.78;1777576;81;21051;-76
2022/06/01 07:57:10;;;;;;;21.57;7.17;;;;;;;29.10;71.55;100790.04;1777141;81;21536;-77
2022/06/01 07:59:38;;;;;;;14.75;6.72;;;;;;;29.06;70.06;100791.41;1777582;80;21035;-76
2022/06/01 08:02:09;;;;;;;17.62;7.62;;;;;;;29.29;70.42;100786.84;1777140;81;21008;-75
2022/06/01 08:04:37;;;;;;;17.42;7.45;;;;;;;29.47;70.50;100784.33;1777820;81;21008;-75
2022/06/01 08:07:05;;;;;;;18.40;8.00;;;;;;;29.60;68.97;100788.45;1777714;81;22134;-77
2022/06/01 08:09:34;;;;;;;22.10;8.53;;;;;;;29.55;67.99;100781.58;1777390;80;21095;-76
2022/06/01 08:14:46;;;;;;;17.35;7.20;;;;;;;29.43;67.85;100779.08;1777971;80;21127;-75
2022/06/01 08:17:13;;;;;;;16.45;6.70;;;;;;;29.70;68.92;100779.69;1778806;80;21491;-75
2022/06/01 08:19:41;;;;;;;14.20;6.95;;;;;;;29.85;68.03;100778.89;1778500;79;21039;-75
2022/06/01 08:22:08;;;;;;;13.70;6.55;;;;;;;30.06;67.97;100778.89;1778468;81;21055;-74
2022/06/01 08:24:35;;;;;;;15.85;6.50;;;;;;;30.21;65.85;100779.33;1778583;80;21551;-74
2022/06/01 08:27:02;;;;;;;17.87;7.22;;;;;;;30.28;65.77;100781.04;1778538;80;21039;-74
2022/06/01 08:29:29;;;;;;;17.32;6.75;;;;;;;30.27;66.02;100780.73;1778652;80;21079;-74
2022/06/01 08:31:58;;;;;;;15.75;7.08;;;;;;;29.93;66.35;100780.91;1778155;80;21521;-74
2022/06/01 08:34:25;;;;;;;18.02;6.95;;;;;;;30.12;65.42;100773.33;1778814;80;20976;-76
2022/06/01 08:36:52;;;;;;;13.10;6.58;;;;;;;30.29;66.10;100772.08;1778901;80;21071;-75
2022/06/01 08:39:19;;;;;;;14.93;6.45;;;;;;;30.44;66.28;100778.66;1778570;81;21060;-75
2022/06/01 08:41:46;;;;;;;16.40;6.30;;;;;;;30.33;64.87;100772.52;1778570;81;21024;-75
2022/06/01 08:44:31;;;;;;;20.85;6.70;;;;;;;30.42;62.87;100778.03;1778929;81;20964;-77
2022/06/01 08:47:06;;;;;;;19.37;6.70;;;;;;;30.33;63.94;100779.16;1778438;81;21063;-76
2022/06/01 08:49:36;;;;;;;19.67;6.28;;;;;;;30.16;61.59;100774.08;1778018;81;21055;-77
2022/06/01 08:52:05;;;;;;;12.95;5.87;;;;;;;30.21;60.48;100771.36;1778502;81;21031;-76
2022/06/01 08:54:33;;;;;;;15.18;6.50;;;;;;;30.39;62.47;100774.92;1778476;81;21508;-76
2022/06/01 08:57:07;;;;;;;15.15;6.50;;;;;;;30.61;61.70;100782.36;1778600;80;21559;-76
2022/06/01 08:59:49;;;;;;;16.32;6.33;;;;;;;30.60;59.66;100779.37;1776932;81;21519;-77
2022/06/01 09:02:35;;;;;;;15.70;6.15;;;;;;;30.53;57.09;100780.14;1777914;81;20984;-76
2022/06/01 09:05:23;;;;;;;17.70;6.72;;;;;;;30.76;58.21;100775.13;1708256;80;21086;-77
2022/06/01 09:08:04;;;;;;;19.60;6.90;;;;;;;30.80;58.55;100773.72;1777372;80;21008;-77
2022/06/01 09:10:53;;;;;;;18.23;6.72;;;;;;;30.87;59.69;100778.55;1778352;81;21063;-76
2022/06/01 09:13:24;;;;;;;16.23;6.70;;;;;;;31.07;60.00;100779.23;1770449;81;20999;-77
2022/06/01 09:16:12;;;;;;;17.05;7.00;;;;;;;30.91;59.41;100775.04;1778732;81;21039;-77
2022/06/01 09:18:49;;;;;;;16.37;6.37;;;;;;;30.88;60.41;100766.95;1771682;79;21040;-76
2022/06/01 09:24:29;;;;;;;17.98;7.10;;;;;;;30.92;60.85;100772.19;1778915;80;20999;-76
2022/06/01 09:27:07;;;;;;;20.73;6.93;;;;;;;31.04;60.67;100772.95;1778462;80;20988;-74
2022/06/01 09:29:45;;;;;;;18.00;6.83;;;;;;;30.92;60.62;100776.18;1733413;83;21354;-75
2022/06/01 09:32:29;;;;;;;16.35;7.15;;;;;;;30.92;59.90;100767.36;1732939;83;21067;-75
2022/06/01 09:35:10;;;;;;;13.53;6.80;;;;;;;31.07;60.43;100772.58;1733494;83;21050;-76
2022/06/01 09:37:46;;;;;;;16.05;7.03;;;;;;;31.19;60.49;100767.02;1727800;83;21044;-77
2022/06/01 09:40:28;;;;;;;17.37;6.60;;;;;;;31.21;60.47;100769.48;1717588;83;21072;-76
2022/06/01 09:43:00;;;;;;;;;;;;;;;31.22;60.14;100774.58;1720343;83;21052;-77
2022/06/01 09:45:33;;;;;;;19.67;6.95;;;;;;;31.11;60.33;100781.80;1717845;83;20124;-76
2022/06/01 09:48:21;;;;;;;15.72;6.30;;;;;;;31.15;60.80;100777.22;1717498;83;21099;-75
2022/06/01 09:50:55;;;;;;;17.98;6.58;;;;;;;31.21;59.95;100776.14;1716745;83;21047;-77
2022/06/01 09:53:23;;;;;;;13.08;5.92;;;;;;;31.59;60.50;100766.37;1703721;83;21047;-77
2022/06/01 09:56:02;;;;;;;17.10;6.35;;;;;;;31.78;59.75;100771.46;1688864;83;21067;-78
2022/06/01 10:07:33;;;;;;;15.63;8.20;;;;;;;32.23;58.25;100781.08;1716797;83;21044;-76
2022/06/01 10:10:04;;;;;;;17.60;8.00;;;;;;;32.79;57.23;100767.35;1718442;83;21020;-76
2022/06/01 10:12:49;;;;;;;14.65;7.28;;;;;;;32.69;58.22;100774.44;1717484;83;21091;-78
2022/06/01 10:15:44;;;;;;;19.02;6.62;;;;;;;33.20;56.18;100777.43;1721029;83;21005;-77
2022/06/01 10:18:28;;;;;;;15.70;7.33;;;;;;;33.36;54.61;100776.95;1727409;82;21035;-77
2022/06/01 10:21:03;;;;;;;16.27;7.80;;;;;;;33.32;55.00;100771.73;1763017;81;21045;-76
2022/06/01 10:23:56;;;;;;;21.37;7.35;;;;;;;33.02;55.67;100776.73;1763030;81;21073;-76
2022/06/01 10:26:29;;;;;;;18.60;6.78;;;;;;;33.08;55.35;100773.22;1763201;81;21049;-75
2022/06/01 10:29:06;;;;;;;13.38;6.53;;;;;;;33.06;54.96;100772.09;1763155;81;21043;-77
2022/06/01 10:31:58;;;;;;;19.40;6.40;;;;;;;32.92;55.58;100775.83;1763256;81;21074;-75
2022/06/01 10:34:49;;;;;;;16.87;6.17;;;;;;;32.72;55.55;100770.53;1763426;81;21061;-76
2022/06/01 10:38:10;;;;;;;20.43;6.33;;;;;;;33.19;54.78;100769.11;1761735;81;24086;-76
2022/06/01 10:40:43;;;;;;;15.10;6.30;;;;;;;33.16;54.55;100771.69;1758061;81;21014;-77
2022/06/01 10:43:38;;;;;;;17.82;6.00;;;;;;;33.25;54.51;100767.73;1758525;81;21073;-77
2022/06/01 10:46:13;;;;;;;16.67;6.35;;;;;;;32.19;56.36;100770.53;1757729;81;21010;-76
2022/06/01 10:48:48;;;;;;;15.25;6.05;;;;;;;32.30;56.51;100761.42;1758046;81;21034;-76
2022/06/01 10:51:20;;;;;;;11.93;6.20;;;;;;;32.44;56.64;100769.39;1758845;81;21065;-76
2022/06/01 10:54:16;;;;;;;17.45;6.12;;;;;;;32.85;55.24;100768.38;1758823;81;20991;-77
2022/06/01 10:56:44;;;;;;;17.12;6.42;;;;;;;33.12;55.06;100769.14;1758698;82;21061;-76
2022/06/01 10:59:16;;;;;;;16.00;6.00;;;;;;;33.28;54.41;100769.19;1758549;81;21061;-76
2022/06/01 11:02:07;;;;;;;19.95;6.25;;;;;;;33.58;54.86;100761.45;1758795;81;21104;-77
2022/06/01 11:05:09;;;;;;;16.48;5.67;;;;;;;33.59;53.88;100762.27;1758937;81;21003;-77
2022/06/01 11:08:08;;;;;;;13.60;6.15;;;;;;;33.96;53.21;100757.13;1758261;82;21073;-77
2022/06/01 11:11:13;;;;;;;19.50;6.20;;;;;;;33.68;52.85;100752.50;1758764;81;21011;-76
2022/06/01 11:14:14;;;;;;;13.25;5.62;;;;;;;33.82;53.39;100751.06;1758715;81;21488;-76
2022/06/01 11:17:04;;;;;;;13.35;5.90;;;;;;;34.03;53.05;100752.58;1758859;81;21026;-77
2022/06/01 11:20:09;;;;;;;13.72;5.42;;;;;;;34.08;52.36;100750.05;1758603;80;21050;-76
2022/06/01 11:22:45;;;;;;;14.25;6.10;;;;;;;34.17;51.40;100758.67;1758842;81;21025;-77
2022/06/01 11:25:24;;;;;;;11.40;5.92;;;;;;;34.45;52.03;100758.20;1757743;81;21487;-77
2022/06/01 11:28:09;;;;;;;13.32;6.05;;;;;;;34.67;52.70;100761.31;1758852;81;21054;-77
2022/06/01 11:31:07;;;;;;;17.60;5.85;;;;;;;34.75;52.23;100757.02;1758909;81;20998;-76
2022/06/01 11:33:58;;;;;;;11.73;5.47;;;;;;;34.56;51.80;100760.70;1758717;81;21022;-77
2022/06/01 11:36:52;;;;;;;13.90;5.42;;;;;;;34.47;51.09;100765.48;1758747;81;21026;-76
2022/06/01 11:39:43;;;;;;;15.45;5.55;;;;;;;34.29;51.55;100760.94;1762015;81;21526;-77
2022/06/01 11:42:33;;;;;;;17.00;5.87;;;;;;;34.84;49.90;100762.91;1763415;81;21527;-77
2022/06/01 11:45:11;;;;;;;18.70;6.08;;;;;;;34.89;49.19;100765.72;1763003;81;21491;-77
2022/06/01 11:47:52;;;;;;;13.60;5.75;;;;;;;35.24;49.31;100759.28;1763291;81;21010;-77
2022/06/01 11:50:26;;;;;;;14.15;5.87;;;;;;;36.04;50.57;100760.85;1763396;80;21518;-77
2022/06/01 11:53:01;;;;;;;17.00;5.50;;;;;;;36.49;49.77;100759.52;1758710;81;21022;-77
2022/06/01 11:55:39;;;;;;;17.27;5.85;;;;;;;36.79;48.64;100755.91;1763400;81;20990;-77
2022/06/01 11:58:24;;;;;;;14.40;5.90;;;;;;;36.39;47.80;100758.75;1763323;81;21565;-75
2022/06/01 12:00:57;;;;;;;19.17;6.30;;;;;;;36.03;48.98;100755.22;1760081;81;21030;-77
2022/06/01 12:03:27;;;;;;;14.87;5.65;;;;;;;36.07;48.80;100755.55;1758236;81;21050;-76
2022/06/01 12:06:12;;;;;;;14.35;5.90;;;;;;;35.93;49.43;100756.30;1762599;81;21507;-76
2022/06/01 12:08:57;;;;;;;;;;;;;;;35.73;49.42;100753.08;1736385;81;21014;-75